createdAt,value
2018-12-31T00:01:13.469Z,4.10
2018-12-31T00:03:39.844Z,4.00
2018-12-31T00:06:06.223Z,3.77
2018-12-31T00:08:32.632Z,4.20
2018-12-31T00:10:59.099Z,3.70
2018-12-31T00:13:25.441Z,3.40
2018-12-31T00:15:51.767Z,4.10
2018-12-31T00:18:18.095Z,3.90
2018-12-31T00:20:44.511Z,3.90
2018-12-31T00:23:10.853Z,3.70
2018-12-31T00:25:37.186Z,3.67
2018-12-31T00:28:03.581Z,3.87
2018-12-31T00:30:29.882Z,4.23
2018-12-31T00:32:56.279Z,4.00
2018-12-31T00:35:22.612Z,3.63
2018-12-31T00:37:49.003Z,3.63
2018-12-31T00:40:15.329Z,3.40
2018-12-31T00:42:41.686Z,3.47
2018-12-31T00:45:08.011Z,3.43
2018-12-31T00:47:34.386Z,4.00
2018-12-31T00:50:00.746Z,3.63
2018-12-31T00:52:27.104Z,3.97
2018-12-31T00:54:53.516Z,3.30
2018-12-31T00:57:19.847Z,3.63
2018-12-31T00:59:46.311Z,3.70
2018-12-31T01:02:12.705Z,3.30
2018-12-31T01:04:39.180Z,3.57
2018-12-31T01:07:05.511Z,3.70
2018-12-31T01:09:31.850Z,3.40
2018-12-31T01:11:58.181Z,3.47
2018-12-31T01:14:24.517Z,3.87
2018-12-31T01:16:50.862Z,3.93
2018-12-31T01:19:17.259Z,3.70
2018-12-31T01:21:43.589Z,4.17
2018-12-31T01:24:09.979Z,3.57
2018-12-31T01:26:36.355Z,3.63
2018-12-31T01:29:02.809Z,3.80
2018-12-31T01:31:29.132Z,3.63
2018-12-31T01:33:55.587Z,4.00
2018-12-31T01:36:21.980Z,3.47
2018-12-31T01:38:48.332Z,3.47
2018-12-31T01:41:14.715Z,3.37
2018-12-31T01:43:41.095Z,3.90
2018-12-31T01:46:07.460Z,3.67
2018-12-31T01:48:33.826Z,3.73
2018-12-31T01:51:00.183Z,3.40
2018-12-31T01:53:26.633Z,3.60
2018-12-31T01:55:52.934Z,3.93
2018-12-31T01:58:19.277Z,3.27
2018-12-31T02:00:45.664Z,3.27
2018-12-31T02:03:12.079Z,3.57
2018-12-31T02:05:38.442Z,3.60
2018-12-31T02:08:04.861Z,3.60
2018-12-31T02:10:31.137Z,3.60
2018-12-31T02:12:57.493Z,3.50
2018-12-31T02:15:23.820Z,3.57
2018-12-31T02:17:50.159Z,3.30
2018-12-31T02:20:16.539Z,3.37
2018-12-31T02:22:42.943Z,3.37
2018-12-31T02:25:09.241Z,3.00
2018-12-31T02:27:35.611Z,3.40
2018-12-31T02:30:01.881Z,3.30
2018-12-31T02:32:28.226Z,3.40
2018-12-31T02:34:54.547Z,3.60
2018-12-31T02:37:20.903Z,3.63
2018-12-31T02:39:47.257Z,3.23
2018-12-31T02:42:13.635Z,3.10
2018-12-31T02:44:40.115Z,3.30
2018-12-31T02:47:06.526Z,3.10
2018-12-31T02:49:32.859Z,3.73
2018-12-31T02:51:59.189Z,3.90
2018-12-31T02:54:25.530Z,3.00
2018-12-31T02:56:51.880Z,3.17
2018-12-31T02:59:18.216Z,3.30
2018-12-31T03:01:44.561Z,2.87
2018-12-31T03:04:10.978Z,3.43
2018-12-31T03:06:37.382Z,3.10
2018-12-31T03:09:03.714Z,2.90
2018-12-31T03:11:30.043Z,3.00
2018-12-31T03:13:56.392Z,3.23
2018-12-31T03:16:22.710Z,3.40
2018-12-31T03:18:49.091Z,2.87
2018-12-31T03:21:15.424Z,3.10
2018-12-31T03:23:41.760Z,2.87
2018-12-31T03:26:08.093Z,2.87
2018-12-31T03:28:34.481Z,2.80
2018-12-31T03:31:00.812Z,2.80
2018-12-31T03:33:27.143Z,2.97
2018-12-31T03:35:53.539Z,3.20
2018-12-31T03:38:19.807Z,2.93
2018-12-31T03:40:46.139Z,3.13
2018-12-31T03:43:12.465Z,2.87
2018-12-31T03:45:38.869Z,2.60
2018-12-31T03:48:05.180Z,2.90
2018-12-31T03:50:31.584Z,2.53
2018-12-31T03:52:57.913Z,2.90
2018-12-31T03:55:24.240Z,2.50
2018-12-31T03:57:50.564Z,2.77
2018-12-31T04:00:16.900Z,3.03
2018-12-31T04:02:43.270Z,3.00
2018-12-31T04:05:09.590Z,2.80
2018-12-31T04:07:35.922Z,2.40
2018-12-31T04:10:02.323Z,3.20
2018-12-31T04:12:28.654Z,2.93
2018-12-31T04:14:55.007Z,3.10
2018-12-31T04:17:21.355Z,2.80
2018-12-31T04:19:47.730Z,2.70
2018-12-31T04:22:14.064Z,2.90
2018-12-31T04:24:40.436Z,2.70
2018-12-31T04:27:06.776Z,2.50
2018-12-31T04:29:33.134Z,2.70
2018-12-31T04:31:59.464Z,2.90
2018-12-31T04:34:25.868Z,2.90
2018-12-31T04:36:52.243Z,2.60
2018-12-31T04:39:18.569Z,2.40
2018-12-31T04:41:45.016Z,2.53
2018-12-31T04:44:11.328Z,2.83
2018-12-31T04:46:37.704Z,2.80
2018-12-31T04:49:04.048Z,3.40
2018-12-31T04:51:30.433Z,3.37
2018-12-31T04:53:56.765Z,2.60
2018-12-31T04:56:23.182Z,2.87
2018-12-31T04:58:49.523Z,3.20
2018-12-31T05:01:15.853Z,3.30
2018-12-31T05:03:42.264Z,3.47
2018-12-31T05:06:08.590Z,2.63
2018-12-31T05:08:34.959Z,3.17
2018-12-31T05:11:01.286Z,3.10
2018-12-31T05:13:27.689Z,2.90
2018-12-31T05:15:54.079Z,2.93
2018-12-31T05:18:20.429Z,3.17
2018-12-31T05:20:46.831Z,2.87
2018-12-31T05:23:13.189Z,3.10
2018-12-31T05:25:39.528Z,3.00
2018-12-31T05:28:05.937Z,3.00
2018-12-31T05:30:32.222Z,4.13
2018-12-31T05:32:58.562Z,3.90
2018-12-31T05:35:25.131Z,3.47
2018-12-31T05:37:51.425Z,3.60
2018-12-31T05:40:17.857Z,3.17
2018-12-31T05:42:44.245Z,4.03
2018-12-31T05:45:10.669Z,3.30
2018-12-31T05:47:36.987Z,3.00
2018-12-31T05:50:03.384Z,3.30
2018-12-31T05:52:29.713Z,3.30
2018-12-31T05:54:56.045Z,2.80
2018-12-31T05:57:22.395Z,3.10
2018-12-31T05:59:48.726Z,2.90
2018-12-31T06:02:15.204Z,2.80
2018-12-31T06:04:41.540Z,3.30
2018-12-31T06:07:07.893Z,3.23
2018-12-31T06:09:34.235Z,3.00
2018-12-31T06:12:00.579Z,2.80
2018-12-31T06:14:26.927Z,3.00
2018-12-31T06:16:53.257Z,2.60
2018-12-31T06:19:19.658Z,2.60
2018-12-31T06:21:45.989Z,2.63
2018-12-31T06:24:12.350Z,3.50
2018-12-31T06:26:38.689Z,2.63
2018-12-31T06:29:05.077Z,2.67
2018-12-31T06:31:31.413Z,2.83
2018-12-31T06:33:57.750Z,2.87
2018-12-31T06:36:24.103Z,2.63
2018-12-31T06:38:50.488Z,2.50
2018-12-31T06:41:16.839Z,2.67
2018-12-31T06:43:43.175Z,2.73
2018-12-31T06:46:09.547Z,2.80
2018-12-31T06:48:35.885Z,2.90
2018-12-31T06:51:02.276Z,3.30
2018-12-31T06:53:28.628Z,3.57
2018-12-31T06:55:54.959Z,3.73
2018-12-31T06:58:21.312Z,2.80
2018-12-31T07:00:47.664Z,3.20
2018-12-31T07:03:14.035Z,3.20
2018-12-31T07:05:40.339Z,3.57
2018-12-31T07:08:06.669Z,3.30
2018-12-31T07:10:33.070Z,3.57
2018-12-31T07:12:59.392Z,3.20
2018-12-31T07:15:25.763Z,3.80
2018-12-31T07:17:52.083Z,2.90
2018-12-31T07:20:18.427Z,3.53
2018-12-31T07:22:44.731Z,3.60
2018-12-31T07:25:11.061Z,3.50
2018-12-31T07:27:37.392Z,3.37
2018-12-31T07:30:03.780Z,3.47
2018-12-31T07:32:30.110Z,3.10
2018-12-31T07:34:56.451Z,3.40
2018-12-31T07:37:22.830Z,3.00
2018-12-31T07:39:49.201Z,3.53
2018-12-31T07:42:15.477Z,2.93
2018-12-31T07:44:41.838Z,3.33
2018-12-31T07:47:08.136Z,3.20
2018-12-31T07:49:34.489Z,3.30
2018-12-31T07:52:00.865Z,3.87
2018-12-31T07:54:27.203Z,3.50
2018-12-31T07:56:53.531Z,3.70
2018-12-31T07:59:19.898Z,3.13
2018-12-31T08:01:46.182Z,3.50
2018-12-31T08:04:12.556Z,3.50
2018-12-31T08:06:38.918Z,3.43
2018-12-31T08:09:05.213Z,3.30
2018-12-31T08:11:31.543Z,3.60
2018-12-31T08:13:57.871Z,3.17
2018-12-31T08:16:24.199Z,3.70
2018-12-31T08:18:50.523Z,3.60
2018-12-31T08:21:16.860Z,3.43
2018-12-31T08:23:43.246Z,3.50
2018-12-31T08:26:09.560Z,3.50
2018-12-31T08:28:35.883Z,3.87
2018-12-31T08:31:02.262Z,3.60
2018-12-31T08:33:28.590Z,3.57
2018-12-31T08:35:54.947Z,3.40
2018-12-31T08:38:21.302Z,3.33
2018-12-31T08:40:47.711Z,3.57
2018-12-31T08:43:13.999Z,3.40
2018-12-31T08:45:40.329Z,3.57
2018-12-31T08:48:06.653Z,3.20
2018-12-31T08:50:32.981Z,3.30
2018-12-31T08:52:59.395Z,3.43
2018-12-31T08:55:25.751Z,3.10
2018-12-31T08:57:52.078Z,3.53
2018-12-31T09:00:18.504Z,3.63
2018-12-31T09:02:44.883Z,3.67
2018-12-31T09:05:11.267Z,3.00
2018-12-31T09:07:37.595Z,2.73
2018-12-31T09:10:04.057Z,3.10
2018-12-31T09:12:30.407Z,3.30
2018-12-31T09:14:56.744Z,2.97
2018-12-31T09:17:23.114Z,3.23
2018-12-31T09:19:49.503Z,2.67
2018-12-31T09:22:15.864Z,3.30
2018-12-31T09:24:44.704Z,2.60
2018-12-31T09:27:08.627Z,2.90
2018-12-31T09:29:35.003Z,2.77
2018-12-31T09:32:01.408Z,2.90
2018-12-31T09:34:27.787Z,2.80
2018-12-31T09:36:54.281Z,2.80
2018-12-31T09:39:20.537Z,2.37
2018-12-31T09:41:46.940Z,3.10
2018-12-31T09:44:13.271Z,2.70
2018-12-31T09:46:39.633Z,2.90
2018-12-31T09:49:05.969Z,2.30
2018-12-31T09:51:32.342Z,2.40
2018-12-31T09:53:58.678Z,2.43
2018-12-31T09:56:25.068Z,2.37
2018-12-31T09:58:51.476Z,2.67
2018-12-31T10:01:17.887Z,2.37
2018-12-31T10:03:44.239Z,2.67
2018-12-31T10:06:10.577Z,2.43
2018-12-31T10:08:36.964Z,2.50
2018-12-31T10:11:03.283Z,2.50
2018-12-31T10:13:29.661Z,2.70
2018-12-31T10:15:56.035Z,2.57
2018-12-31T10:18:22.423Z,2.50
2018-12-31T10:20:48.779Z,2.70
2018-12-31T10:23:15.165Z,2.87
2018-12-31T10:25:41.541Z,2.90
2018-12-31T10:28:07.875Z,3.00
2018-12-31T10:30:34.257Z,2.53
2018-12-31T10:33:00.598Z,2.50
2018-12-31T10:35:26.926Z,2.73
2018-12-31T10:37:53.338Z,2.60
2018-12-31T10:40:19.677Z,2.70
2018-12-31T10:42:46.073Z,2.70
2018-12-31T10:45:14.616Z,2.40
2018-12-31T10:47:40.971Z,2.27
2018-12-31T10:50:07.481Z,2.80
2018-12-31T10:52:33.926Z,2.60
2018-12-31T10:55:00.286Z,2.70
2018-12-31T10:57:26.641Z,2.20
2018-12-31T10:59:52.971Z,2.47
2018-12-31T11:02:19.360Z,2.47
2018-12-31T11:04:45.698Z,2.47
2018-12-31T11:07:12.075Z,2.63
2018-12-31T11:09:38.410Z,2.50
2018-12-31T11:12:04.805Z,2.50
2018-12-31T11:14:31.168Z,2.50
2018-12-31T11:16:57.522Z,2.50
2018-12-31T11:19:23.924Z,2.77
2018-12-31T11:21:50.338Z,2.60
2018-12-31T11:24:16.668Z,2.67
2018-12-31T11:26:43.029Z,2.70
2018-12-31T11:29:09.434Z,2.60
2018-12-31T11:31:35.791Z,2.50
2018-12-31T11:34:02.263Z,2.47
2018-12-31T11:36:28.646Z,3.20
2018-12-31T11:38:55.030Z,2.60
2018-12-31T11:41:21.359Z,2.80
2018-12-31T11:43:47.742Z,2.60
2018-12-31T11:46:14.080Z,2.53
2018-12-31T11:48:40.502Z,2.60
2018-12-31T11:51:06.840Z,2.97
2018-12-31T11:53:33.215Z,2.23
2018-12-31T11:55:59.547Z,2.20
2018-12-31T11:58:25.884Z,2.77
2018-12-31T12:00:52.289Z,2.30
2018-12-31T12:03:18.736Z,2.40
2018-12-31T12:05:45.135Z,2.40
2018-12-31T12:08:11.567Z,2.47
2018-12-31T12:10:37.898Z,2.60
2018-12-31T12:13:04.274Z,2.50
2018-12-31T12:15:30.663Z,2.47
2018-12-31T12:17:57.017Z,2.70
2018-12-31T12:20:23.468Z,2.70
2018-12-31T12:22:49.813Z,2.50
2018-12-31T12:25:16.215Z,3.00
2018-12-31T12:27:42.589Z,2.50
2018-12-31T12:30:08.973Z,2.60
2018-12-31T12:32:35.300Z,2.70
2018-12-31T12:35:01.711Z,2.50
2018-12-31T12:37:28.037Z,2.67
2018-12-31T12:39:54.368Z,2.70
2018-12-31T12:42:20.855Z,2.60
2018-12-31T12:44:47.233Z,2.97
2018-12-31T12:47:13.615Z,2.50
2018-12-31T12:49:39.940Z,2.80
2018-12-31T12:52:06.278Z,3.10
2018-12-31T12:54:32.731Z,2.40
2018-12-31T12:56:59.009Z,2.40
2018-12-31T12:59:25.457Z,2.40
2018-12-31T13:01:51.762Z,2.40
2018-12-31T13:04:18.153Z,2.73
2018-12-31T13:06:44.544Z,2.40
2018-12-31T13:09:10.953Z,2.80
2018-12-31T13:11:37.286Z,2.60
2018-12-31T13:14:03.666Z,2.67
2018-12-31T13:16:29.974Z,2.63
2018-12-31T13:18:56.303Z,2.60
2018-12-31T13:21:22.673Z,2.87
2018-12-31T13:23:49.003Z,3.00
2018-12-31T13:26:15.404Z,2.80
2018-12-31T13:28:41.794Z,2.93
2018-12-31T13:31:08.122Z,2.67
2018-12-31T13:33:34.498Z,2.80
2018-12-31T13:36:00.822Z,2.37
2018-12-31T13:38:27.159Z,2.50
2018-12-31T13:40:53.497Z,2.47
2018-12-31T13:43:19.826Z,2.57
2018-12-31T13:45:46.208Z,2.80
2018-12-31T13:48:12.542Z,3.10
2018-12-31T13:50:38.914Z,2.87
2018-12-31T13:53:05.263Z,2.27
2018-12-31T13:55:31.646Z,2.47
2018-12-31T13:57:57.973Z,2.37
2018-12-31T14:00:24.420Z,2.67
2018-12-31T14:02:50.759Z,2.33
2018-12-31T14:05:17.114Z,2.67
2018-12-31T14:07:43.446Z,2.60
2018-12-31T14:10:09.775Z,2.50
2018-12-31T14:12:36.160Z,2.60
2018-12-31T14:15:02.518Z,2.60
2018-12-31T14:17:28.962Z,2.30
2018-12-31T14:19:55.327Z,2.50
2018-12-31T14:22:21.685Z,2.40
2018-12-31T14:24:48.143Z,2.53
2018-12-31T14:27:14.573Z,2.60
2018-12-31T14:29:40.985Z,2.27
2018-12-31T14:32:07.315Z,2.70
2018-12-31T14:34:33.687Z,2.50
2018-12-31T14:37:00.107Z,2.57
2018-12-31T14:39:26.437Z,2.80
2018-12-31T14:41:52.758Z,2.33
2018-12-31T14:44:19.170Z,2.63
2018-12-31T14:46:45.491Z,2.30
2018-12-31T14:49:11.858Z,2.10
2018-12-31T14:51:38.189Z,2.53
2018-12-31T14:54:04.570Z,2.33
2018-12-31T14:56:30.912Z,2.40
2018-12-31T14:58:57.332Z,2.17
2018-12-31T15:01:23.692Z,2.37
2018-12-31T15:03:50.058Z,2.57
2018-12-31T15:06:16.392Z,2.57
2018-12-31T15:08:42.783Z,2.40
2018-12-31T15:11:09.135Z,2.50
2018-12-31T15:13:35.542Z,2.40
2018-12-31T15:16:01.821Z,2.27
2018-12-31T15:18:28.176Z,2.00
2018-12-31T15:20:54.508Z,2.20
2018-12-31T15:23:20.837Z,2.27
2018-12-31T15:25:47.244Z,2.30
2018-12-31T15:28:13.770Z,2.50
2018-12-31T15:30:40.061Z,2.43
2018-12-31T15:33:06.452Z,2.20
2018-12-31T15:35:32.805Z,2.63
2018-12-31T15:37:59.209Z,2.50
2018-12-31T15:40:25.587Z,2.30
2018-12-31T15:42:51.918Z,2.30
2018-12-31T15:45:18.304Z,2.20
2018-12-31T15:47:44.641Z,2.13
2018-12-31T15:50:11.035Z,2.20
2018-12-31T15:52:37.369Z,2.90
2018-12-31T15:55:03.702Z,2.50
2018-12-31T15:57:30.055Z,2.07
2018-12-31T15:59:56.449Z,2.40
2018-12-31T16:02:22.766Z,2.20
2018-12-31T16:04:49.097Z,2.60
2018-12-31T16:07:15.497Z,2.37
2018-12-31T16:09:41.860Z,2.47
2018-12-31T16:12:08.191Z,2.27
2018-12-31T16:14:34.579Z,2.20
2018-12-31T16:17:00.922Z,2.20
2018-12-31T16:19:27.319Z,2.20
2018-12-31T16:21:53.639Z,2.47
2018-12-31T16:24:19.969Z,2.27
2018-12-31T16:26:46.307Z,2.07
2018-12-31T16:29:12.633Z,2.07
2018-12-31T16:31:39.034Z,2.50
2018-12-31T16:34:05.489Z,2.40
2018-12-31T16:36:31.821Z,2.43
2018-12-31T16:38:58.155Z,2.40
2018-12-31T16:41:24.485Z,2.87
2018-12-31T16:43:50.900Z,2.40
2018-12-31T16:46:17.271Z,2.30
2018-12-31T16:48:43.676Z,2.60
2018-12-31T16:51:10.056Z,2.60
2018-12-31T16:53:36.397Z,2.60
2018-12-31T16:56:02.734Z,3.17
2018-12-31T16:58:29.068Z,2.67
2018-12-31T17:00:55.435Z,2.60
2018-12-31T17:03:21.821Z,2.73
2018-12-31T17:05:48.157Z,2.67
2018-12-31T17:08:14.532Z,2.67
2018-12-31T17:10:40.868Z,2.40
2018-12-31T17:13:07.251Z,2.80
2018-12-31T17:15:33.582Z,3.40
2018-12-31T17:17:59.963Z,2.87
2018-12-31T17:20:26.316Z,2.80
2018-12-31T17:22:52.645Z,3.50
2018-12-31T17:25:19.009Z,2.80
2018-12-31T17:27:45.467Z,3.30
2018-12-31T17:30:11.843Z,3.00
2018-12-31T17:32:38.229Z,3.03
2018-12-31T17:35:04.555Z,2.90
2018-12-31T17:37:30.944Z,3.50
2018-12-31T17:39:57.327Z,3.37
2018-12-31T17:42:23.649Z,3.50
2018-12-31T17:44:50.022Z,3.60
2018-12-31T17:47:16.355Z,3.30
2018-12-31T17:49:42.755Z,3.73
2018-12-31T17:52:09.094Z,3.60
2018-12-31T17:54:35.430Z,3.07
2018-12-31T17:57:01.773Z,3.63
2018-12-31T17:59:28.086Z,3.00
2018-12-31T18:01:54.411Z,3.10
2018-12-31T18:04:20.783Z,3.20
2018-12-31T18:06:47.108Z,3.13
2018-12-31T18:09:13.498Z,3.40
2018-12-31T18:11:39.837Z,3.00
2018-12-31T18:14:06.205Z,3.10
2018-12-31T18:16:32.539Z,3.13
2018-12-31T18:18:58.917Z,2.90
2018-12-31T18:21:25.248Z,2.87
2018-12-31T18:23:51.583Z,2.87
2018-12-31T18:26:18.018Z,3.10
2018-12-31T18:28:44.326Z,2.90
2018-12-31T18:31:10.671Z,3.47
2018-12-31T18:33:37.012Z,2.53
2018-12-31T18:36:03.339Z,2.63
2018-12-31T18:38:29.670Z,2.30
2018-12-31T18:40:56.079Z,2.80
2018-12-31T18:43:22.398Z,2.57
2018-12-31T18:45:48.733Z,3.07
2018-12-31T18:48:15.069Z,2.80
2018-12-31T18:50:41.467Z,2.70
2018-12-31T18:53:07.828Z,2.80
2018-12-31T18:55:34.154Z,2.90
2018-12-31T18:58:00.536Z,2.90
2018-12-31T19:00:26.873Z,2.87
2018-12-31T19:02:53.210Z,2.80
2018-12-31T19:05:19.542Z,2.93
2018-12-31T19:07:48.407Z,2.70
2018-12-31T19:10:14.730Z,2.67
2018-12-31T19:12:41.127Z,3.20
2018-12-31T19:15:07.482Z,3.23
2018-12-31T19:17:33.809Z,3.97
2018-12-31T19:20:00.163Z,3.70
2018-12-31T19:22:26.552Z,3.47
2018-12-31T19:24:52.882Z,3.93
2018-12-31T19:27:19.252Z,4.40
2018-12-31T19:29:45.763Z,3.57
2018-12-31T19:32:12.134Z,3.37
2018-12-31T19:34:38.493Z,4.00
2018-12-31T19:37:04.835Z,3.93
2018-12-31T19:39:31.174Z,3.90
2018-12-31T19:41:57.504Z,4.43
2018-12-31T19:44:23.904Z,4.53
2018-12-31T19:46:50.236Z,4.53
2018-12-31T19:49:16.596Z,4.57
2018-12-31T19:51:42.914Z,4.30
2018-12-31T19:54:09.314Z,4.37
2018-12-31T19:56:35.658Z,5.60
2018-12-31T19:59:01.990Z,5.13
2018-12-31T20:01:28.319Z,4.60
2018-12-31T20:03:54.650Z,5.10
2018-12-31T20:06:21.114Z,4.67
2018-12-31T20:08:47.393Z,5.10
2018-12-31T20:11:13.731Z,5.10
2018-12-31T20:13:40.075Z,4.73
2018-12-31T20:16:06.470Z,4.87
2018-12-31T20:18:32.795Z,5.20
2018-12-31T20:20:59.175Z,5.33
2018-12-31T20:23:25.506Z,6.00
2018-12-31T20:25:51.901Z,5.60
2018-12-31T20:28:18.250Z,5.90
2018-12-31T20:30:44.572Z,5.57
2018-12-31T20:33:10.930Z,5.40
2018-12-31T20:35:37.257Z,6.40
2018-12-31T20:38:03.643Z,6.00
2018-12-31T20:40:30.001Z,5.73
2018-12-31T20:42:56.344Z,6.20
2018-12-31T20:45:22.744Z,5.50
2018-12-31T20:47:49.066Z,5.27
2018-12-31T20:50:15.399Z,5.93
2018-12-31T20:52:41.737Z,6.47
2018-12-31T20:55:08.065Z,5.30
2018-12-31T20:57:34.447Z,6.00
2018-12-31T21:00:00.785Z,5.53
2018-12-31T21:02:27.109Z,5.37
2018-12-31T21:04:53.442Z,6.20
2018-12-31T21:07:19.800Z,5.40
2018-12-31T21:09:46.199Z,5.40
2018-12-31T21:12:12.532Z,5.10
2018-12-31T21:14:38.857Z,5.17
2018-12-31T21:17:05.262Z,4.93
2018-12-31T21:19:31.650Z,4.70
2018-12-31T21:21:57.975Z,4.60
2018-12-31T21:24:24.305Z,5.00
2018-12-31T21:26:50.655Z,4.83
2018-12-31T21:29:17.042Z,4.80
2018-12-31T21:31:43.376Z,4.77
2018-12-31T21:34:09.727Z,4.10
2018-12-31T21:36:36.088Z,4.20
2018-12-31T21:39:02.432Z,4.40
2018-12-31T21:41:28.771Z,4.20
2018-12-31T21:43:55.126Z,4.40
2018-12-31T21:46:21.455Z,4.07
2018-12-31T21:48:47.780Z,4.13
2018-12-31T21:51:14.184Z,3.93
2018-12-31T21:53:40.553Z,4.13
2018-12-31T21:56:06.944Z,4.73
2018-12-31T21:58:33.294Z,3.90
2018-12-31T22:00:59.643Z,4.03
2018-12-31T22:03:25.994Z,4.10
2018-12-31T22:05:52.384Z,3.90
2018-12-31T22:08:18.758Z,4.10
2018-12-31T22:10:45.089Z,4.60
2018-12-31T22:13:11.532Z,4.87
2018-12-31T22:15:37.867Z,4.90
2018-12-31T22:18:04.294Z,4.90
2018-12-31T22:20:30.651Z,5.47
2018-12-31T22:22:57.014Z,5.40
2018-12-31T22:25:23.319Z,5.57
2018-12-31T22:27:49.650Z,6.07
2018-12-31T22:30:15.981Z,5.60
2018-12-31T22:32:42.316Z,5.47
2018-12-31T22:35:08.701Z,6.10
2018-12-31T22:37:35.033Z,5.80
2018-12-31T22:40:01.364Z,5.70
2018-12-31T22:42:27.694Z,5.83
2018-12-31T22:44:54.033Z,5.73
2018-12-31T22:47:20.467Z,5.43
2018-12-31T22:49:46.767Z,5.90
2018-12-31T22:52:13.092Z,5.13
2018-12-31T22:54:39.427Z,5.30
2018-12-31T22:57:05.792Z,5.60
2018-12-31T22:59:32.087Z,5.07
2018-12-31T23:01:58.502Z,6.07
2018-12-31T23:04:24.867Z,4.97
2018-12-31T23:06:51.230Z,5.50
2018-12-31T23:09:17.524Z,5.27
2018-12-31T23:11:43.856Z,5.30
2018-12-31T23:14:10.188Z,5.50
2018-12-31T23:16:36.571Z,4.93
2018-12-31T23:19:02.901Z,5.17
2018-12-31T23:21:29.263Z,4.90
2018-12-31T23:23:55.608Z,4.80
2018-12-31T23:26:22.059Z,4.93
2018-12-31T23:28:52.530Z,4.37
2018-12-31T23:31:14.918Z,4.50
2018-12-31T23:33:41.248Z,4.40
2018-12-31T23:36:07.578Z,4.53
2018-12-31T23:38:33.921Z,4.47
2018-12-31T23:41:00.272Z,4.53
2018-12-31T23:43:27.411Z,3.97
2018-12-31T23:45:52.956Z,4.73
2018-12-31T23:48:19.286Z,4.70
2018-12-31T23:50:45.627Z,4.10
2018-12-31T23:53:11.958Z,4.73
2018-12-31T23:55:38.291Z,4.30
2018-12-31T23:58:04.636Z,4.37
